CheckWX is a tool to help pilots better visualize weather data.  It is not intended as a substitute for an official pre-flight weather briefing.

17:03:43 UTC

LDSP METAR
Split Airport
Split, Croatia
Current

34 mins ago

LDSP 191630Z 03015KT 9999 BKN055 21/05 Q1017 NOSIG
Observed
Sep-19 @ 16:30 UTC
Wind
  • 030° at 15 KTS
Visibility
10,000+ meters
Flight Rules
VFR
Cloud Levels
  • Broken at 5,500' AGL
Temperature
21°C / 70°F
Dewpoint
C / 41°F
Humidity
35%
Altimeter
30.03" Hg
Pressure
1016.92 hPa
Previous

1 hour ago

LDSP 191600Z 04012KT 010V070 9999 BKN055 22/06 Q1016 NOSIG
Observed
Sep-19 @ 16:00 UTC
Wind
  • 040° at 12 KTS
Visibility
10,000+ meters
Flight Rules
VFR
Cloud Levels
  • Broken at 5,500' AGL
Temperature
22°C / 72°F
Dewpoint
C / 43°F
Humidity
36%
Altimeter
30" Hg
Pressure
1015.92 hPa
Previous

2 hours ago

LDSP 191530Z 05007KT 9999 BKN051 22/07 Q1016 NOSIG
Observed
Sep-19 @ 15:30 UTC
Wind
  • 050° at 7 KTS
Visibility
10,000+ meters
Flight Rules
VFR
Cloud Levels
  • Broken at 5,100' AGL
Temperature
22°C / 72°F
Dewpoint
C / 45°F
Humidity
38%
Altimeter
30" Hg
Pressure
1015.92 hPa